Time;durP1;ratioP1;P1;durP2;ratioP2;P2;SDS_P1;SDS_P2;PMS_P1;PMS_P2;Temp;Humidity;BMP_temperature;BMP_pressure;BME280_temperature;BME280_humidity;BME280_pressure;Samples;Min_cycle;Max_cycle;Signal;HPM_P1;HPM_P2
2023/04/18 00:01:11;;;;;;;15.95;10.48;;;;;;;10.17;65.11;102502.13;5044160;28;20066;-89
2023/04/18 00:03:39;;;;;;;13.98;10.35;;;;;;;10.13;65.34;102497.78;5026383;28;20036;-89
2023/04/18 00:06:04;;;;;;;14.05;10.38;;;;;;;10.03;65.15;102482.94;5044355;28;20089;-88
2023/04/18 00:08:30;;;;;;;16.05;11.07;;;;;;;10.06;65.46;102486.38;5047911;28;20028;-89
2023/04/18 00:10:56;;;;;;;16.00;10.85;;;;;;;10.17;65.30;102507.44;5020610;28;20039;-89
2023/04/18 00:13:21;;;;;;;16.55;10.95;;;;;;;10.06;65.62;102494.31;5043609;28;20029;-89
2023/04/18 00:15:47;;;;;;;14.25;10.18;;;;;;;10.10;65.56;102500.44;5051717;28;20495;-89
2023/04/18 00:18:15;;;;;;;15.13;10.68;;;;;;;10.03;65.69;102489.09;5025857;28;20036;-89
2023/04/18 00:20:41;;;;;;;17.02;11.05;;;;;;;10.09;65.86;102491.66;5024445;28;20035;-89
2023/04/18 00:23:06;;;;;;;16.23;11.18;;;;;;;10.13;65.41;102501.28;5025157;28;20032;-89
2023/04/18 00:25:32;;;;;;;16.70;11.32;;;;;;;10.09;65.47;102493.41;5042448;28;20017;-89
2023/04/18 00:27:57;;;;;;;16.80;12.02;;;;;;;9.96;65.81;102468.91;5042869;28;20078;-89
2023/04/18 00:30:22;;;;;;;17.02;11.55;;;;;;;10.07;66.35;102495.19;5024435;28;21240;-89
2023/04/18 00:32:48;;;;;;;16.92;11.98;;;;;;;10.02;65.46;102499.66;5022434;28;20467;-89
2023/04/18 00:35:13;;;;;;;20.13;11.85;;;;;;;9.85;65.90;102486.66;5044648;28;20059;-89
2023/04/18 00:37:38;;;;;;;14.88;11.18;;;;;;;9.91;66.10;102494.50;5025257;28;20017;-89
2023/04/18 00:40:04;;;;;;;16.38;10.77;;;;;;;9.79;66.02;102476.13;5046104;28;20036;-90
2023/04/18 00:42:30;;;;;;;18.58;11.40;;;;;;;9.81;65.14;102488.44;5049205;28;20036;-89
2023/04/18 00:44:56;;;;;;;17.23;11.13;;;;;;;9.83;64.95;102486.63;5015724;28;20013;-89
2023/04/18 00:47:21;;;;;;;16.33;10.73;;;;;;;9.83;63.96;102493.69;5044390;28;20033;-89
2023/04/18 00:49:47;;;;;;;17.02;10.32;;;;;;;9.76;63.80;102476.19;5018961;28;20477;-89
2023/04/18 00:52:13;;;;;;;16.95;10.88;;;;;;;9.73;63.93;102485.00;5029247;28;20404;-89
2023/04/18 00:54:39;;;;;;;16.15;10.73;;;;;;;9.73;63.64;102494.69;5022338;28;20079;-90
2023/04/18 00:57:05;;;;;;;17.73;10.77;;;;;;;9.58;62.79;102480.75;5026529;28;20037;-89
2023/04/18 00:59:33;;;;;;;15.45;10.52;;;;;;;9.57;63.36;102491.34;5040672;28;20087;-90
2023/04/18 01:01:58;;;;;;;17.27;10.93;;;;;;;9.59;63.31;102492.19;5041049;28;20108;-89
2023/04/18 01:04:23;;;;;;;15.57;10.60;;;;;;;9.48;62.57;102500.22;5023114;28;20587;-89
2023/04/18 01:06:50;;;;;;;13.13;10.18;;;;;;;9.37;62.46;102494.13;5017797;28;20032;-89
2023/04/18 01:09:15;;;;;;;15.77;9.93;;;;;;;9.48;62.10;102499.34;5040715;28;20028;-89
2023/04/18 01:11:40;;;;;;;14.23;9.88;;;;;;;9.36;62.88;102493.25;5035189;28;20033;-89
2023/04/18 01:14:07;;;;;;;16.33;10.77;;;;;;;9.41;63.25;102503.78;5028933;28;20064;-89
2023/04/18 01:16:33;;;;;;;16.45;9.77;;;;;;;9.36;63.17;102502.94;5045417;28;20061;-89
2023/04/18 01:18:59;;;;;;;16.10;9.88;;;;;;;9.35;64.02;102502.06;5025618;28;20490;-89
2023/04/18 01:21:25;;;;;;;14.52;10.20;;;;;;;9.23;63.03;102499.50;5039673;28;20040;-89
2023/04/18 01:23:52;;;;;;;15.88;10.10;;;;;;;9.35;63.57;102502.06;5041780;28;20631;-89
2023/04/18 01:26:17;;;;;;;14.98;10.05;;;;;;;9.16;62.09;102477.59;5024056;28;20075;-89
2023/04/18 01:28:42;;;;;;;14.65;10.30;;;;;;;9.18;61.82;102486.34;5024249;28;20021;-89
2023/04/18 01:31:08;;;;;;;17.55;11.32;;;;;;;9.17;63.69;102484.63;5040427;28;20049;-90
2023/04/18 01:33:33;;;;;;;13.18;9.73;;;;;;;9.16;62.96;102484.63;5021040;28;20017;-90
2023/04/18 01:35:58;;;;;;;19.08;10.35;;;;;;;9.08;62.71;102478.53;5034560;28;20492;-89
2023/04/18 01:38:24;;;;;;;13.93;9.63;;;;;;;9.07;62.43;102477.66;5036867;28;20043;-89
2023/04/18 01:40:49;;;;;;;15.38;9.75;;;;;;;9.06;63.32;102486.47;5045024;28;20021;-89
2023/04/18 01:43:15;;;;;;;15.10;10.65;;;;;;;8.95;63.19;102472.47;5039113;28;20079;-89
2023/04/18 01:45:40;;;;;;;14.63;9.93;;;;;;;8.95;62.25;102461.91;5035932;28;20032;-90
2023/04/18 01:48:05;;;;;;;17.05;10.00;;;;;;;8.87;63.88;102469.03;5019852;28;20079;-89
2023/04/18 01:50:31;;;;;;;16.23;10.88;;;;;;;8.75;62.78;102461.19;5039347;28;20029;-89
2023/04/18 01:52:56;;;;;;;19.25;10.48;;;;;;;8.71;63.94;102462.09;5020916;28;20017;-89
2023/04/18 01:55:21;;;;;;;15.10;10.27;;;;;;;8.69;64.14;102464.75;5024729;28;20025;-89
2023/04/18 01:57:46;;;;;;;17.80;10.77;;;;;;;8.58;64.41;102450.75;5039541;28;20040;-89
2023/04/18 02:00:12;;;;;;;17.30;10.18;;;;;;;8.62;64.15;102458.63;5023091;28;20032;-89
2023/04/18 02:02:37;;;;;;;15.15;10.75;;;;;;;8.69;64.53;102476.16;5039802;28;20037;-89
2023/04/18 02:05:03;;;;;;;15.70;11.15;;;;;;;8.51;63.71;102460.47;5045495;28;20107;-88
2023/04/18 02:07:28;;;;;;;14.15;10.68;;;;;;;8.53;64.07;102463.06;5028608;28;20033;-89
2023/04/18 02:09:54;;;;;;;14.48;10.18;;;;;;;8.47;64.33;102461.34;5042774;28;20021;-89
2023/04/18 02:12:19;;;;;;;17.95;10.65;;;;;;;8.45;64.42;102460.50;5027313;28;20536;-90
2023/04/18 02:14:49;;;;;;;14.38;10.10;;;;;;;8.47;64.59;102468.38;5023254;28;20548;-89
2023/04/18 02:17:14;;;;;;;15.57;10.43;;;;;;;8.35;65.00;102458.78;5021377;28;20022;-89
2023/04/18 02:19:40;;;;;;;16.17;10.93;;;;;;;8.33;64.60;102457.88;5032939;28;20268;-89
2023/04/18 02:22:05;;;;;;;14.63;10.70;;;;;;;8.31;65.01;102465.81;5027950;28;20462;-89
2023/04/18 02:24:30;;;;;;;17.15;10.00;;;;;;;8.30;64.82;102463.16;5032122;28;20055;-89
2023/04/18 02:26:56;;;;;;;15.13;10.10;;;;;;;8.18;64.49;102446.53;5049349;28;20029;-89
2023/04/18 02:29:21;;;;;;;14.95;9.80;;;;;;;8.18;64.40;102462.34;5028099;28;20060;-89
2023/04/18 02:31:46;;;;;;;15.60;9.90;;;;;;;8.06;65.00;102451.84;5048444;28;20061;-89
2023/04/18 02:34:12;;;;;;;12.80;9.90;;;;;;;8.08;64.21;102458.00;5026571;28;20032;-89
2023/04/18 02:36:37;;;;;;;15.93;10.82;;;;;;;7.96;64.74;102449.25;5019939;28;20071;-89
2023/04/18 02:39:02;;;;;;;13.57;9.35;;;;;;;8.01;65.75;102455.38;5043946;28;20032;-89
2023/04/18 02:41:27;;;;;;;19.13;11.00;;;;;;;8.04;64.47;102466.78;5027965;28;20024;-89
2023/04/18 02:43:53;;;;;;;17.80;10.77;;;;;;;7.91;64.72;102449.28;5030217;28;20035;-89
2023/04/18 02:46:19;;;;;;;14.98;9.95;;;;;;;7.98;64.92;102466.81;5029946;28;20021;-89
2023/04/18 02:48:44;;;;;;;15.10;9.25;;;;;;;7.87;65.65;102458.06;5046275;28;20025;-89
2023/04/18 02:51:10;;;;;;;16.52;10.25;;;;;;;7.85;65.39;102451.94;5027307;28;20057;-89
2023/04/18 02:53:35;;;;;;;14.48;9.95;;;;;;;7.89;66.09;102464.22;5045373;28;20028;-89
2023/04/18 02:56:01;;;;;;;15.10;10.48;;;;;;;7.82;65.89;102460.72;5029302;28;20458;-89
2023/04/18 02:58:26;;;;;;;15.45;10.65;;;;;;;7.82;65.32;102468.59;5023128;28;20524;-90
2023/04/18 03:00:53;;;;;;;13.98;10.50;;;;;;;7.78;65.42;102460.72;5041405;28;20052;-89
2023/04/18 03:03:18;;;;;;;15.85;10.35;;;;;;;7.68;65.86;102447.56;5042836;28;20068;-89
2023/04/18 03:05:44;;;;;;;16.75;10.45;;;;;;;7.73;65.25;102454.59;5049983;28;20049;-89
2023/04/18 03:08:10;;;;;;;15.90;10.27;;;;;;;7.78;66.41;102461.59;5025600;28;20031;-89
2023/04/18 03:10:35;;;;;;;16.05;10.23;;;;;;;7.61;65.77;102448.50;5050915;28;20215;-89
2023/04/18 03:13:00;;;;;;;14.80;9.93;;;;;;;7.62;66.23;102447.59;5045757;28;20018;-89
2023/04/18 03:15:26;;;;;;;14.48;10.20;;;;;;;7.63;66.02;102459.00;5044831;28;20420;-89
2023/04/18 03:17:52;;;;;;;16.33;11.02;;;;;;;7.57;66.10;102459.03;5039774;28;20040;-88
2023/04/18 03:20:17;;;;;;;15.65;10.10;;;;;;;7.52;66.31;102456.41;5020560;28;20052;-89
2023/04/18 03:22:42;;;;;;;15.15;10.05;;;;;;;7.56;66.34;102455.53;5044353;28;20100;-88
2023/04/18 03:25:08;;;;;;;16.10;10.57;;;;;;;7.57;65.93;102459.03;5046053;28;20179;-89
2023/04/18 03:27:33;;;;;;;17.75;10.10;;;;;;;7.45;66.38;102452.00;5025910;28;20017;-89
2023/04/18 03:29:59;;;;;;;16.00;10.68;;;;;;;7.31;66.43;102461.66;5041311;28;20075;-89
2023/04/18 03:32:25;;;;;;;18.90;10.43;;;;;;;7.19;66.81;102443.28;5049051;28;20028;-88
2023/04/18 03:34:50;;;;;;;14.70;10.43;;;;;;;7.36;66.36;102462.53;5041355;28;20491;-89
2023/04/18 03:37:15;;;;;;;13.77;9.95;;;;;;;7.14;67.00;102462.56;5042777;28;20040;-89
2023/04/18 03:39:41;;;;;;;17.50;10.98;;;;;;;7.20;66.77;102471.34;5022139;28;20428;-89
2023/04/18 03:42:06;;;;;;;15.73;11.27;;;;;;;7.20;66.82;102474.84;5041523;28;20510;-89
2023/04/18 03:44:31;;;;;;;15.98;10.75;;;;;;;7.10;67.05;102471.34;5032908;28;20021;-89
2023/04/18 03:46:57;;;;;;;14.88;10.88;;;;;;;6.99;67.71;102472.19;5046167;28;20025;-89
2023/04/18 03:49:22;;;;;;;17.55;11.50;;;;;;;6.90;67.54;102455.56;5020132;28;20047;-89
2023/04/18 03:51:47;;;;;;;14.00;10.45;;;;;;;6.84;68.26;102459.91;5026613;28;20032;-89
2023/04/18 03:54:16;;;;;;;16.13;10.05;;;;;;;6.89;67.42;102479.19;5048114;28;20127;-89
2023/04/18 03:56:42;;;;;;;16.80;11.20;;;;;;;6.89;68.45;102460.78;5029601;28;20037;-89
2023/04/18 03:59:07;;;;;;;13.82;10.02;;;;;;;6.96;68.01;102462.56;5049403;28;20106;-89
2023/04/18 04:01:32;;;;;;;14.73;9.85;;;;;;;6.77;68.06;102452.91;5037791;28;20476;-89
2023/04/18 04:04:00;;;;;;;17.55;10.75;;;;;;;6.74;68.42;102450.25;5033102;28;20119;-89
2023/04/18 04:06:25;;;;;;;16.73;10.90;;;;;;;6.76;68.11;102470.44;5036640;28;20504;-89
2023/04/18 04:08:50;;;;;;;14.55;9.80;;;;;;;6.67;68.73;102469.50;5045538;28;20029;-89
2023/04/18 04:11:16;;;;;;;14.13;9.43;;;;;;;6.59;68.62;102451.13;5033859;28;20032;-89
2023/04/18 04:13:41;;;;;;;18.80;11.00;;;;;;;6.57;68.31;102463.34;5028093;28;20031;-89
2023/04/18 04:16:07;;;;;;;15.32;10.13;;;;;;;6.67;69.03;102452.00;5023976;28;20055;-89
2023/04/18 04:18:32;;;;;;;15.55;9.88;;;;;;;6.64;68.47;102455.50;5029830;28;20048;-89
2023/04/18 04:20:58;;;;;;;16.65;10.65;;;;;;;6.78;68.39;102460.78;5025825;28;20369;-88
2023/04/18 04:23:24;;;;;;;14.93;9.82;;;;;;;6.96;67.64;102459.94;5024769;28;20040;-89
2023/04/18 04:25:51;;;;;;;15.68;10.02;;;;;;;6.75;68.20;102455.50;5020421;28;20468;-89
2023/04/18 04:28:23;;;;;;;18.02;11.23;;;;;;;6.76;68.00;102462.53;5019227;28;20056;-89
2023/04/18 04:30:52;;;;;;;17.23;11.10;;;;;;;6.82;68.54;102465.16;5029520;28;20481;-89
2023/04/18 04:33:18;;;;;;;16.17;10.55;;;;;;;6.78;67.98;102460.78;5019601;28;20036;-89
2023/04/18 04:35:45;;;;;;;13.35;10.07;;;;;;;6.83;68.01;102473.94;5022921;28;20484;-88
2023/04/18 04:38:11;;;;;;;16.48;10.48;;;;;;;6.75;68.32;102470.41;5018131;28;20029;-89
2023/04/18 04:40:36;;;;;;;14.45;10.05;;;;;;;6.69;68.36;102458.13;5025504;28;20395;-89
2023/04/18 04:43:01;;;;;;;15.98;9.80;;;;;;;6.69;68.06;102460.75;5043729;28;20030;-89
2023/04/18 04:45:27;;;;;;;15.05;10.50;;;;;;;6.62;68.36;102462.50;5032053;28;20024;-89
2023/04/18 04:47:52;;;;;;;16.40;10.75;;;;;;;6.65;68.63;102480.91;5024875;28;20658;-89
2023/04/18 04:50:17;;;;;;;17.00;10.27;;;;;;;6.68;68.07;102472.16;5031062;28;20025;-89
2023/04/18 04:52:43;;;;;;;13.02;10.02;;;;;;;6.68;68.46;102481.78;5049892;28;20476;-89
2023/04/18 04:55:09;;;;;;;17.25;10.63;;;;;;;6.47;68.41;102478.22;5031176;28;20040;-89
2023/04/18 04:57:34;;;;;;;14.85;9.93;;;;;;;6.60;68.15;102469.50;5030456;28;20020;-89
2023/04/18 05:00:00;;;;;;;18.70;10.40;;;;;;;6.43;68.43;102472.94;5045670;28;20490;-88
2023/04/18 05:02:25;;;;;;;14.85;10.52;;;;;;;6.40;68.79;102476.47;5020624;28;20053;-89
2023/04/18 05:04:50;;;;;;;13.82;9.73;;;;;;;6.53;68.31;102477.38;5019716;28;20480;-89
2023/04/18 05:07:16;;;;;;;14.57;9.90;;;;;;;6.57;67.82;102479.13;5045223;28;20037;-89
2023/04/18 05:09:41;;;;;;;14.10;10.13;;;;;;;6.56;67.95;102485.25;5036322;28;20564;-89
2023/04/18 05:12:06;;;;;;;14.73;10.15;;;;;;;6.55;68.09;102473.00;5038498;28;20020;-89
2023/04/18 05:14:32;;;;;;;13.73;9.05;;;;;;;6.54;67.43;102476.50;5024144;28;20029;-89
2023/04/18 05:16:57;;;;;;;18.30;10.90;;;;;;;6.60;67.89;102487.91;5025682;28;20499;-88
2023/04/18 05:19:22;;;;;;;13.75;9.40;;;;;;;6.69;67.74;102488.78;5029414;28;20017;-89
2023/04/18 05:21:48;;;;;;;15.52;10.05;;;;;;;6.71;67.71;102484.41;5021116;28;20025;-88
2023/04/18 05:24:13;;;;;;;16.17;9.45;;;;;;;6.75;67.62;102484.41;5038030;28;20071;-88
2023/04/18 05:26:39;;;;;;;15.60;9.93;;;;;;;6.87;68.54;102496.72;5023515;28;20511;-88
2023/04/18 05:29:04;;;;;;;15.40;10.00;;;;;;;6.82;67.20;102474.81;5027444;28;20035;-88
2023/04/18 05:31:29;;;;;;;13.23;9.18;;;;;;;6.95;67.03;102501.97;5045643;28;20035;-88
2023/04/18 05:33:55;;;;;;;14.95;10.05;;;;;;;6.90;67.47;102494.97;5043769;28;20036;-88
2023/04/18 05:36:22;;;;;;;15.63;10.93;;;;;;;6.84;67.25;102478.31;5028982;28;20092;-88
2023/04/18 05:38:47;;;;;;;14.40;10.10;;;;;;;7.04;66.91;102497.63;5028526;28;20025;-89
2023/04/18 05:41:12;;;;;;;15.18;10.00;;;;;;;7.19;67.01;102498.53;5026409;28;20067;-88
2023/04/18 05:43:38;;;;;;;13.98;9.63;;;;;;;7.31;67.09;102506.41;5036478;28;20033;-89
2023/04/18 05:46:03;;;;;;;13.75;9.93;;;;;;;7.47;66.01;102513.44;5037384;28;20083;-88
2023/04/18 05:48:28;;;;;;;15.68;10.55;;;;;;;7.56;66.25;102504.66;5030395;28;20047;-88
2023/04/18 05:50:54;;;;;;;16.42;10.95;;;;;;;7.66;66.13;102507.25;5020986;28;20017;-88
2023/04/18 05:53:19;;;;;;;12.95;9.55;;;;;;;7.73;66.08;102509.88;5043879;28;20029;-89
2023/04/18 05:55:47;;;;;;;14.43;9.80;;;;;;;7.78;65.39;102511.63;5029167;28;20025;-89
2023/04/18 05:58:12;;;;;;;13.80;9.75;;;;;;;7.84;65.29;102518.66;5027377;28;20044;-89
2023/04/18 06:00:38;;;;;;;14.90;10.20;;;;;;;7.95;65.09;102521.25;5027157;28;20021;-89
2023/04/18 06:03:03;;;;;;;14.43;9.95;;;;;;;8.14;65.62;102536.13;5026099;28;20038;-90
2023/04/18 06:05:28;;;;;;;12.73;9.90;;;;;;;8.17;65.73;102518.56;5047526;28;20473;-89
2023/04/18 06:07:53;;;;;;;16.58;10.07;;;;;;;8.17;65.14;102521.19;5029154;28;20025;-89
2023/04/18 06:10:19;;;;;;;14.02;9.77;;;;;;;8.23;64.63;102519.41;5023484;28;20025;-89
2023/04/18 06:12:44;;;;;;;14.07;10.10;;;;;;;8.25;64.85;102530.81;5030745;28;20473;-89
2023/04/18 06:15:10;;;;;;;13.60;9.73;;;;;;;8.26;65.23;102522.06;5052034;28;20044;-89
2023/04/18 06:17:35;;;;;;;15.18;9.95;;;;;;;8.26;64.69;102512.38;5042634;28;20694;-89
2023/04/18 06:20:03;;;;;;;12.77;9.85;;;;;;;8.40;64.29;102526.41;5022490;28;20022;-90
2023/04/18 06:22:28;;;;;;;15.25;9.50;;;;;;;8.48;65.45;102513.19;5026016;28;20044;-89
2023/04/18 06:24:54;;;;;;;15.20;9.48;;;;;;;8.58;65.32;102517.56;5028625;28;20523;-89
2023/04/18 06:27:20;;;;;;;16.30;10.02;;;;;;;8.62;64.45;102521.91;5042837;28;20551;-89
2023/04/18 06:29:45;;;;;;;12.40;9.43;;;;;;;8.70;64.40;102529.78;5045204;28;20036;-89
2023/04/18 06:32:10;;;;;;;17.52;10.48;;;;;;;8.77;64.37;102528.00;5025684;28;20044;-89
2023/04/18 06:34:37;;;;;;;14.45;10.23;;;;;;;8.93;63.42;102524.38;5023716;28;20594;-89
2023/04/18 06:37:02;;;;;;;16.23;10.57;;;;;;;9.05;64.02;102523.44;5025286;28;20025;-89
2023/04/18 06:39:27;;;;;;;14.65;10.10;;;;;;;9.23;63.52;102525.91;5026563;28;20081;-88
2023/04/18 06:41:53;;;;;;;15.00;10.15;;;;;;;9.29;63.41;102525.00;5041151;28;20108;-89
2023/04/18 06:44:18;;;;;;;14.57;9.60;;;;;;;9.43;63.64;102538.97;5035886;28;20028;-90
2023/04/18 06:46:44;;;;;;;15.77;10.05;;;;;;;9.59;62.77;102550.28;5023186;28;20025;-89
2023/04/18 06:49:10;;;;;;;15.35;9.57;;;;;;;9.44;63.28;102535.44;5025316;28;20032;-90
2023/04/18 06:51:35;;;;;;;12.90;9.48;;;;;;;9.57;62.63;102531.81;5006707;28;20025;-89
2023/04/18 06:54:00;;;;;;;13.90;9.30;;;;;;;9.72;61.77;102541.34;5006286;28;20021;-89
2023/04/18 06:56:26;;;;;;;15.10;10.15;;;;;;;9.83;60.93;102536.81;5012755;28;20025;-89
2023/04/18 06:58:51;;;;;;;12.77;9.00;;;;;;;9.89;60.86;102538.56;5025234;28;20025;-89
2023/04/18 07:01:17;;;;;;;14.98;10.00;;;;;;;9.75;61.83;102541.34;5002408;28;20021;-89
2023/04/18 07:03:43;;;;;;;17.30;9.40;;;;;;;9.80;61.78;102542.16;5003120;28;20025;-90
2023/04/18 07:06:09;;;;;;;13.73;9.25;;;;;;;9.91;60.69;102558.78;5019742;28;20033;-90
2023/04/18 07:08:35;;;;;;;13.45;9.65;;;;;;;9.80;62.23;102528.09;5021226;28;20014;-89
2023/04/18 07:11:00;;;;;;;13.70;9.40;;;;;;;10.00;61.58;102547.25;5006370;28;20479;-90
2023/04/18 07:13:25;;;;;;;18.15;10.18;;;;;;;10.05;61.64;102550.72;5007034;28;20026;-90
2023/04/18 07:15:51;;;;;;;13.20;9.02;;;;;;;9.98;61.44;102549.03;5004504;28;20041;-90
2023/04/18 07:18:16;;;;;;;24.17;9.70;;;;;;;9.90;61.14;102557.03;5014494;28;20029;-90
2023/04/18 07:20:41;;;;;;;13.32;9.35;;;;;;;9.95;61.43;102555.22;5014072;28;20037;-89
2023/04/18 07:23:09;;;;;;;14.02;10.07;;;;;;;9.83;62.15;102535.97;5011393;28;20589;-90
2023/04/18 07:25:35;;;;;;;13.35;9.68;;;;;;;9.95;61.13;102549.94;5029020;28;20035;-89
2023/04/18 07:28:00;;;;;;;13.35;9.02;;;;;;;9.94;61.91;102556.09;5022353;28;20396;-89
2023/04/18 07:30:25;;;;;;;15.77;9.38;;;;;;;10.14;61.80;102555.91;5024337;28;20036;-92
2023/04/18 07:32:51;;;;;;;12.50;8.50;;;;;;;10.12;60.97;102562.97;5006394;28;20057;-91
2023/04/18 07:35:16;;;;;;;14.07;9.63;;;;;;;10.17;62.20;102561.16;5008608;28;20036;-91
2023/04/18 07:37:41;;;;;;;12.43;8.52;;;;;;;10.39;61.07;102566.22;5013388;28;20032;-90
2023/04/18 07:40:07;;;;;;;15.38;8.95;;;;;;;10.38;60.90;102559.19;5008411;28;20023;-89
2023/04/18 07:42:33;;;;;;;11.45;8.80;;;;;;;10.44;61.32;102565.28;5021659;28;20033;-90
2023/04/18 07:45:05;;;;;;;12.43;8.35;;;;;;;10.58;61.70;102572.16;5024352;28;20025;-91
2023/04/18 07:47:30;;;;;;;13.60;8.73;;;;;;;10.72;60.69;102564.91;5026826;28;20050;-92
2023/04/18 07:49:56;;;;;;;12.30;8.18;;;;;;;10.83;60.16;102555.09;5010170;28;20411;-93
2023/04/18 07:52:21;;;;;;;12.30;8.07;;;;;;;11.07;60.47;102551.22;5017528;28;20033;-89
2023/04/18 07:54:46;;;;;;;11.32;8.55;;;;;;;11.46;59.84;102572.66;5007698;28;20032;-91
2023/04/18 07:57:12;;;;;;;10.43;8.07;;;;;;;11.67;59.00;102551.13;5024986;28;20034;-89
2023/04/18 07:59:37;;;;;;;12.23;8.30;;;;;;;11.54;59.02;102556.66;5024857;28;20125;-89
2023/04/18 08:02:02;;;;;;;10.45;8.38;;;;;;;11.57;56.93;102565.44;5004210;28;20053;-90
2023/04/18 08:04:28;;;;;;;9.77;7.40;;;;;;;11.57;58.11;102551.31;5018489;28;20025;-90
2023/04/18 08:06:53;;;;;;;9.20;7.47;;;;;;;11.80;58.69;102567.69;5030660;28;20029;-89
2023/04/18 08:09:20;;;;;;;11.38;8.70;;;;;;;11.82;57.81;102563.25;5026066;28;20427;-89
2023/04/18 08:11:46;;;;;;;12.70;8.50;;;;;;;11.84;57.86;102564.09;5007436;28;20500;-89
2023/04/18 08:14:11;;;;;;;11.65;8.45;;;;;;;11.86;57.35;102578.22;5025946;28;20054;-89
2023/04/18 08:16:38;;;;;;;10.98;8.13;;;;;;;11.87;58.21;102572.00;5017440;28;20499;-89
2023/04/18 08:19:03;;;;;;;12.52;8.43;;;;;;;11.64;56.83;102560.91;5026234;28;20057;-90
2023/04/18 08:21:28;;;;;;;13.93;8.50;;;;;;;11.49;59.19;102575.28;5026849;28;20068;-90
2023/04/18 08:23:54;;;;;;;9.73;8.18;;;;;;;11.24;58.21;102569.50;5023593;28;20065;-90
2023/04/18 08:26:20;;;;;;;11.43;8.05;;;;;;;11.08;58.91;102579.41;5023035;28;20072;-90
2023/04/18 08:28:46;;;;;;;13.73;8.40;;;;;;;10.94;59.28;102561.09;5025725;28;20028;-90
2023/04/18 08:31:12;;;;;;;12.60;8.60;;;;;;;11.14;60.05;102579.31;5025620;28;20026;-89
2023/04/18 08:33:38;;;;;;;11.00;8.77;;;;;;;11.24;60.36;102588.03;5025374;28;20064;-90
2023/04/18 08:36:03;;;;;;;11.32;8.73;;;;;;;11.21;59.84;102573.06;4992865;28;20453;-90
2023/04/18 08:38:28;;;;;;;11.63;8.40;;;;;;;11.55;59.95;102584.88;5030975;28;20111;-89
2023/04/18 08:40:54;;;;;;;10.25;8.02;;;;;;;11.53;58.81;102574.34;5005494;28;20117;-89
2023/04/18 08:43:19;;;;;;;10.68;8.50;;;;;;;11.65;59.23;102576.75;5021384;28;20142;-89
2023/04/18 08:45:46;;;;;;;9.85;7.72;;;;;;;11.73;57.92;102577.50;5021148;28;20053;-90
2023/04/18 08:48:16;;;;;;;10.60;7.85;;;;;;;11.90;58.90;102579.03;4999811;28;20064;-90
2023/04/18 08:50:42;;;;;;;10.45;8.15;;;;;;;12.11;58.01;102578.63;5019199;28;20388;-89
2023/04/18 08:53:08;;;;;;;10.73;8.45;;;;;;;12.36;57.33;102567.56;5027471;28;20048;-89
2023/04/18 08:55:34;;;;;;;10.48;8.80;;;;;;;12.62;55.25;102578.50;5029243;28;20477;-90
2023/04/18 08:58:00;;;;;;;10.43;8.05;;;;;;;12.76;55.63;102564.94;5007998;28;20128;-90
2023/04/18 09:00:26;;;;;;;10.98;8.75;;;;;;;13.10;55.17;102559.75;5003284;28;20376;-91
2023/04/18 09:02:55;;;;;;;10.40;8.07;;;;;;;13.57;54.77;102571.06;5024464;28;20034;-90
2023/04/18 09:05:23;;;;;;;10.60;8.10;;;;;;;13.84;53.59;102569.47;5008851;28;20512;-90
2023/04/18 09:07:51;;;;;;;10.48;8.43;;;;;;;13.84;52.93;102557.97;5016046;28;20108;-90
2023/04/18 09:10:32;;;;;;;11.45;8.50;;;;;;;15.15;52.53;102550.63;5006505;28;20105;-90
2023/04/18 09:12:58;;;;;;;11.35;8.57;;;;;;;16.45;46.82;102554.16;5007268;28;20524;-90
2023/04/18 09:15:26;;;;;;;11.00;7.60;;;;;;;16.94;43.74;102547.84;5000229;28;20041;-90
2023/04/18 09:17:53;;;;;;;9.18;7.75;;;;;;;16.60;44.61;102558.94;5023893;28;20077;-90
2023/04/18 09:20:46;;;;;;;7.90;6.75;;;;;;;17.04;46.89;102556.34;5029079;28;20018;-90
2023/04/18 09:23:22;;;;;;;12.13;7.45;;;;;;;16.81;44.37;102549.25;5003143;28;20115;-90
2023/04/18 09:25:48;;;;;;;8.85;6.95;;;;;;;15.96;45.67;102558.63;5002013;28;20029;-91
2023/04/18 09:28:32;;;;;;;8.88;6.65;;;;;;;15.15;47.48;102547.97;5010925;28;20112;-90
2023/04/18 09:31:16;;;;;;;9.65;6.97;;;;;;;14.48;48.60;102556.22;5023637;28;20029;-92
2023/04/18 09:33:55;;;;;;;8.45;7.45;;;;;;;14.09;48.43;102563.53;5024601;28;20496;-93
2023/04/18 09:36:22;;;;;;;11.02;7.53;;;;;;;14.12;48.49;102552.78;5001787;28;20027;-93
2023/04/18 09:38:50;;;;;;;8.25;6.88;;;;;;;14.49;48.50;102552.63;5012484;28;20033;-93
2023/04/18 09:41:16;;;;;;;9.00;6.75;;;;;;;16.21;45.92;102545.25;5014989;28;20540;-92
2023/04/18 09:43:43;;;;;;;8.73;6.68;;;;;;;16.30;45.57;102534.25;5004544;28;20125;-92
2023/04/18 09:46:09;;;;;;;10.30;6.82;;;;;;;16.25;46.13;102552.22;5007317;28;20034;-92
2023/04/18 09:48:34;;;;;;;11.10;6.00;;;;;;;16.23;43.92;102543.41;5027105;28;20050;-93
2023/04/18 09:51:04;;;;;;;7.07;5.72;;;;;;;15.92;44.75;102523.16;5015325;28;20068;-93
2023/04/18 09:53:30;;;;;;;7.88;6.38;;;;;;;15.49;45.13;102526.44;5010285;28;20029;-92
2023/04/18 09:55:56;;;;;;;8.23;6.03;;;;;;;15.42;46.55;102546.19;5022920;28;20017;-93
2023/04/18 09:58:24;;;;;;;9.25;6.57;;;;;;;15.17;47.31;102536.34;5020134;28;20369;-92
2023/04/18 10:00:52;;;;;;;11.38;6.45;;;;;;;14.82;47.10;102540.09;5023742;28;20452;-90
2023/04/18 10:03:18;;;;;;;8.82;6.88;;;;;;;15.05;48.66;102540.25;5005262;28;20032;-90
2023/04/18 10:05:44;;;;;;;9.13;6.50;;;;;;;14.93;46.06;102537.13;5026907;28;20389;-91
2023/04/18 10:08:12;;;;;;;8.15;5.65;;;;;;;14.68;47.42;102535.19;5012501;28;20021;-91
2023/04/18 10:10:37;;;;;;;8.48;5.95;;;;;;;14.60;48.50;102547.91;5014169;28;20029;-90
2023/04/18 10:13:05;;;;;;;6.78;5.13;;;;;;;14.43;47.72;102537.69;5023272;28;20495;-91
2023/04/18 10:15:31;;;;;;;6.88;4.82;;;;;;;14.18;49.26;102548.19;5007411;28;20235;-89
2023/04/18 10:18:02;;;;;;;7.20;5.10;;;;;;;14.15;49.83;102555.38;5028570;28;20036;-89
2023/04/18 10:20:29;;;;;;;6.78;5.65;;;;;;;14.11;50.84;102564.34;5025795;28;20029;-89
2023/04/18 10:22:56;;;;;;;6.57;4.78;;;;;;;14.11;48.84;102564.34;5009273;28;20029;-89
2023/04/18 10:25:40;;;;;;;5.28;4.20;;;;;;;14.43;49.13;102556.31;5023263;28;20663;-89
2023/04/18 10:28:08;;;;;;;8.65;4.70;;;;;;;14.54;47.13;102550.72;5026703;28;20032;-89
2023/04/18 10:30:43;;;;;;;5.95;4.68;;;;;;;14.37;47.75;102561.84;5006571;28;20038;-89
2023/04/18 10:33:29;;;;;;;4.90;4.30;;;;;;;14.19;48.88;102565.88;5029641;28;20057;-90
2023/04/18 10:36:05;;;;;;;5.57;4.88;;;;;;;14.09;48.54;102563.53;5024616;28;20473;-89
2023/04/18 10:38:32;;;;;;;6.10;5.35;;;;;;;14.11;49.51;102562.53;5026105;28;20037;-89
2023/04/18 10:41:23;;;;;;;6.53;5.35;;;;;;;14.26;48.66;102571.88;5008503;28;20024;-90
2023/04/18 10:44:07;;;;;;;5.88;5.05;;;;;;;14.37;47.89;102560.97;5021908;28;20041;-90
2023/04/18 10:46:40;;;;;;;6.82;5.60;;;;;;;14.62;48.13;102559.34;5019038;28;20382;-90
2023/04/18 10:49:21;;;;;;;7.47;5.95;;;;;;;14.85;48.58;102552.47;5023243;28;20572;-91
2023/04/18 10:51:52;;;;;;;6.00;5.38;;;;;;;15.04;47.96;102540.31;5007631;28;20764;-90
2023/04/18 10:54:37;;;;;;;7.38;5.55;;;;;;;15.00;47.57;102557.31;5007652;28;20385;-92
2023/04/18 10:57:04;;;;;;;7.20;5.63;;;;;;;14.69;47.63;102549.41;5025558;28;20489;-89
2023/04/18 10:59:31;;;;;;;6.57;5.88;;;;;;;14.47;48.00;102535.81;5028165;28;20330;-89
2023/04/18 11:02:18;;;;;;;7.30;5.72;;;;;;;14.59;48.80;102540.81;5025228;28;20666;-90
2023/04/18 11:04:55;;;;;;;7.40;6.38;;;;;;;14.04;50.10;102556.53;5007753;28;20493;-89
2023/04/18 11:07:35;;;;;;;10.90;7.05;;;;;;;14.03;50.79;102548.56;5024468;28;20033;-90
2023/04/18 11:10:01;;;;;;;9.20;7.13;;;;;;;14.04;51.64;102547.69;5025919;28;20029;-90
2023/04/18 11:12:31;;;;;;;9.60;7.40;;;;;;;14.13;50.58;102557.19;5025480;28;20036;-89
2023/04/18 11:14:57;;;;;;;9.52;6.88;;;;;;;14.03;49.89;102527.31;5008612;28;20499;-90
2023/04/18 11:17:25;;;;;;;8.93;6.88;;;;;;;14.40;48.55;102540.44;5008018;28;20034;-90